createdAt,value
2023-05-19T00:00:31.967Z,427.6154
2023-05-19T00:01:32.869Z,430.5385
2023-05-19T00:02:33.940Z,432.0769
2023-05-19T00:03:34.838Z,441.2308
2023-05-19T00:04:35.907Z,440.0769
2023-05-19T00:05:37.066Z,443.5385
2023-05-19T00:06:38.016Z,443.1538
2023-05-19T00:07:39.014Z,442.8462
2023-05-19T00:08:40.054Z,440.0000
2023-05-19T00:09:41.121Z,443.3846
2023-05-19T00:10:42.186Z,441.2308
2023-05-19T00:11:43.225Z,441.4615
2023-05-19T00:12:44.297Z,443.3846
2023-05-19T00:13:45.287Z,439.4615
2023-05-19T00:14:46.349Z,439.7692
2023-05-19T00:15:47.423Z,442.5385
2023-05-19T00:16:48.409Z,443.9231
2023-05-19T00:17:49.413Z,442.0769
2023-05-19T00:18:50.566Z,438.5385
2023-05-19T00:19:51.490Z,433.6923
2023-05-19T00:20:52.583Z,433.0000
2023-05-19T00:21:53.667Z,433.6923
2023-05-19T00:22:54.631Z,436.0769
2023-05-19T00:23:55.668Z,441.2308
2023-05-19T00:24:56.796Z,438.3077
2023-05-19T00:25:57.812Z,438.8462
2023-05-19T00:26:58.833Z,440.1538
2023-05-19T00:27:59.809Z,439.7692
2023-05-19T00:29:00.863Z,442.2308
2023-05-19T00:30:01.892Z,446.0000
2023-05-19T00:31:03.010Z,438.3846
2023-05-19T00:32:04.026Z,438.6923
2023-05-19T00:33:05.137Z,437.5385
2023-05-19T00:34:06.074Z,441.6923
2023-05-19T00:35:07.097Z,439.6154
2023-05-19T00:36:08.210Z,440.0769
2023-05-19T00:37:09.252Z,438.9231
2023-05-19T00:38:10.233Z,437.6154
2023-05-19T00:39:11.329Z,438.3077
2023-05-19T00:40:12.315Z,440.6923
2023-05-19T00:41:13.429Z,441.1538
2023-05-19T00:42:14.507Z,442.3077
2023-05-19T00:43:15.429Z,444.3077
2023-05-19T00:44:16.490Z,443.7692
2023-05-19T00:45:17.568Z,439.8462
2023-05-19T00:46:18.649Z,437.2308
2023-05-19T00:47:19.679Z,432.1538
2023-05-19T00:48:20.650Z,435.8462
2023-05-19T00:49:21.710Z,440.4615
2023-05-19T00:50:22.746Z,439.2308
2023-05-19T00:51:23.890Z,438.6154
2023-05-19T00:52:24.906Z,444.6154
2023-05-19T00:53:25.852Z,442.8462
2023-05-19T00:54:26.912Z,441.4615
2023-05-19T00:55:27.999Z,437.6154
2023-05-19T00:56:29.099Z,438.1538
2023-05-19T00:57:30.106Z,442.6923
2023-05-19T00:58:31.219Z,443.5385
2023-05-19T00:59:32.153Z,440.0769
2023-05-19T01:00:33.421Z,439.3077
2023-05-19T01:01:34.385Z,441.4615
2023-05-19T01:02:35.392Z,444.0769
2023-05-19T01:03:36.473Z,443.4615
2023-05-19T01:04:37.308Z,446.3077
2023-05-19T01:05:38.412Z,447.7692
2023-05-19T01:06:39.452Z,447.6154
2023-05-19T01:07:40.509Z,442.6923
2023-05-19T01:08:41.522Z,444.7692
2023-05-19T01:09:42.552Z,444.3846
2023-05-19T01:10:43.579Z,440.8462
2023-05-19T01:11:44.687Z,431.0000
2023-05-19T01:12:45.697Z,434.9231
2023-05-19T01:13:46.725Z,448.1538
2023-05-19T01:14:47.757Z,448.3846
2023-05-19T01:15:48.838Z,449.6923
2023-05-19T01:16:49.938Z,447.0000
2023-05-19T01:17:50.935Z,443.7692
2023-05-19T01:18:51.937Z,440.9231
2023-05-19T01:19:53.011Z,440.9231
2023-05-19T01:20:54.027Z,445.0769
2023-05-19T01:21:55.106Z,441.7692
2023-05-19T01:22:56.113Z,448.1538
2023-05-19T01:23:57.200Z,447.6923
2023-05-19T01:24:58.150Z,445.1538
2023-05-19T01:25:59.185Z,450.8462
2023-05-19T01:27:00.331Z,444.2308
2023-05-19T01:28:01.370Z,444.0000
2023-05-19T01:29:02.379Z,444.6923
2023-05-19T01:30:03.407Z,442.1538
2023-05-19T01:31:04.446Z,443.6923
2023-05-19T01:32:05.599Z,437.0000
2023-05-19T01:33:06.610Z,439.3077
2023-05-19T01:34:07.663Z,441.9231
2023-05-19T01:35:08.594Z,442.9231
2023-05-19T01:36:09.741Z,441.9231
2023-05-19T01:37:10.786Z,441.0000
2023-05-19T01:38:11.791Z,446.6923
2023-05-19T01:39:12.792Z,447.1538
2023-05-19T01:40:13.813Z,446.2308
2023-05-19T01:41:14.948Z,444.0769
2023-05-19T01:42:15.935Z,443.2308
2023-05-19T01:43:16.985Z,443.0769
2023-05-19T01:44:18.082Z,443.9231
2023-05-19T01:45:19.100Z,445.8462
2023-05-19T01:46:20.098Z,444.7692
2023-05-19T01:47:21.239Z,446.0000
2023-05-19T01:48:22.200Z,447.3077
2023-05-19T01:49:23.219Z,442.4615
2023-05-19T01:50:24.264Z,443.3846
2023-05-19T01:51:25.296Z,442.0000
2023-05-19T01:52:26.377Z,442.2308
2023-05-19T01:53:27.416Z,443.2308
2023-05-19T01:54:28.416Z,445.3846
2023-05-19T01:55:29.473Z,446.1538
2023-05-19T01:56:30.494Z,450.0769
2023-05-19T01:57:31.593Z,449.6154
2023-05-19T01:58:32.694Z,448.0000
2023-05-19T01:59:33.638Z,448.2308
2023-05-19T02:00:34.815Z,447.5385
2023-05-19T02:01:35.753Z,447.5385
2023-05-19T02:02:36.839Z,446.4615
2023-05-19T02:03:37.857Z,446.0769
2023-05-19T02:04:38.877Z,446.5385
2023-05-19T02:05:39.940Z,445.3077
2023-05-19T02:06:40.960Z,445.1538
2023-05-19T02:07:42.017Z,444.3077
2023-05-19T02:08:43.126Z,446.2308
2023-05-19T02:09:44.037Z,449.1538
2023-05-19T02:10:45.137Z,440.4615
2023-05-19T02:11:46.113Z,442.3077
2023-05-19T02:12:47.191Z,441.1538
2023-05-19T02:13:48.268Z,439.4615
2023-05-19T02:14:49.270Z,439.8462
2023-05-19T02:15:50.374Z,441.6923
2023-05-19T02:16:51.350Z,452.8462
2023-05-19T02:17:52.461Z,451.8462
2023-05-19T02:18:53.541Z,445.9231
2023-05-19T02:19:54.469Z,440.0769
2023-05-19T02:20:55.494Z,442.9231
2023-05-19T02:21:56.550Z,449.7692
2023-05-19T02:22:57.656Z,453.3077
2023-05-19T02:23:58.723Z,455.0000
2023-05-19T02:24:59.673Z,454.9231
2023-05-19T02:26:00.717Z,451.4615
2023-05-19T02:27:01.736Z,448.6923
2023-05-19T02:28:02.838Z,439.0769
2023-05-19T02:29:03.858Z,445.3077
2023-05-19T02:30:04.845Z,446.5385
2023-05-19T02:31:05.945Z,445.8462
2023-05-19T02:32:07.027Z,447.3077
2023-05-19T02:33:08.082Z,447.0769
2023-05-19T02:34:09.053Z,443.5385
2023-05-19T02:35:10.025Z,436.3846
2023-05-19T02:36:11.085Z,440.0000
2023-05-19T02:37:12.118Z,442.2308
2023-05-19T02:38:13.225Z,443.8462
2023-05-19T02:39:14.296Z,443.7692
2023-05-19T02:40:15.338Z,441.6154
2023-05-19T02:41:16.311Z,444.4615
2023-05-19T02:42:17.334Z,446.3077
2023-05-19T02:43:18.426Z,451.8462
2023-05-19T02:44:19.446Z,450.7692
2023-05-19T02:45:20.470Z,448.6923
2023-05-19T02:46:21.559Z,445.6923
2023-05-19T02:47:22.605Z,446.7692
2023-05-19T02:48:23.605Z,444.3077
2023-05-19T02:49:24.656Z,440.6923
2023-05-19T02:50:25.652Z,445.0000
2023-05-19T02:51:26.709Z,446.5385
2023-05-19T02:52:27.727Z,448.5385
2023-05-19T02:53:28.806Z,447.6923
2023-05-19T02:54:29.855Z,447.5385
2023-05-19T02:55:30.865Z,441.5385
2023-05-19T02:56:31.907Z,439.6923
2023-05-19T02:57:32.964Z,441.6923
2023-05-19T02:58:34.040Z,440.8462
2023-05-19T02:59:35.115Z,442.9231
2023-05-19T03:00:36.060Z,440.3077
2023-05-19T03:01:37.185Z,445.0769
2023-05-19T03:02:38.313Z,444.5385
2023-05-19T03:03:39.329Z,446.0000
2023-05-19T03:04:40.253Z,442.8462
2023-05-19T03:05:41.327Z,440.2308
2023-05-19T03:06:42.307Z,443.7692
2023-05-19T03:07:43.425Z,439.6154
2023-05-19T03:08:44.429Z,437.3077
2023-05-19T03:09:45.522Z,458.5385
2023-05-19T03:10:46.465Z,453.3077
2023-05-19T03:11:47.489Z,448.6923
2023-05-19T03:12:48.610Z,446.7692
2023-05-19T03:13:49.617Z,445.4615
2023-05-19T03:14:50.665Z,447.4615
2023-05-19T03:15:51.698Z,449.7692
2023-05-19T03:16:52.918Z,443.4615
2023-05-19T03:17:53.784Z,444.2308
2023-05-19T03:18:54.903Z,446.6923
2023-05-19T03:19:55.899Z,447.7692
2023-05-19T03:20:56.922Z,447.3077
2023-05-19T03:21:57.893Z,453.1538
2023-05-19T03:22:59.018Z,437.3077
2023-05-19T03:24:00.100Z,440.5385
2023-05-19T03:25:01.087Z,439.0000
2023-05-19T03:26:02.054Z,440.2308
2023-05-19T03:27:03.194Z,439.5385
2023-05-19T03:28:04.152Z,442.3077
2023-05-19T03:29:05.240Z,449.0000
2023-05-19T03:30:06.726Z,449.3077
2023-05-19T03:31:07.337Z,443.3077
2023-05-19T03:32:08.296Z,445.2308
2023-05-19T03:33:09.522Z,446.2308
2023-05-19T03:34:10.395Z,448.2308
2023-05-19T03:35:11.512Z,449.0769
2023-05-19T03:36:12.496Z,447.3846
2023-05-19T03:37:13.519Z,437.7692
2023-05-19T03:38:14.536Z,441.6923
2023-05-19T03:39:15.692Z,448.0000
2023-05-19T03:40:16.691Z,453.0000
2023-05-19T03:41:17.733Z,452.2308
2023-05-19T03:42:18.697Z,452.1538
2023-05-19T03:43:19.755Z,447.6923
2023-05-19T03:44:20.869Z,447.4615
2023-05-19T03:45:21.923Z,451.3846
2023-05-19T03:46:22.983Z,448.3846
2023-05-19T03:47:23.959Z,445.0000
2023-05-19T03:48:24.959Z,452.0769
2023-05-19T03:49:26.026Z,452.6154
2023-05-19T03:50:27.157Z,454.5385
2023-05-19T03:51:28.069Z,448.0769
2023-05-19T03:52:29.137Z,444.4615
2023-05-19T03:53:30.148Z,448.5385
2023-05-19T03:54:31.274Z,446.1538
2023-05-19T03:55:32.257Z,445.1538
2023-05-19T03:56:33.311Z,448.3077
2023-05-19T03:57:34.309Z,450.6923
2023-05-19T03:58:35.392Z,452.6154
2023-05-19T03:59:36.421Z,450.9231
2023-05-19T04:00:37.558Z,449.0000
2023-05-19T04:01:38.500Z,445.7692
2023-05-19T04:02:39.654Z,447.6923
2023-05-19T04:03:40.618Z,451.0000
2023-05-19T04:04:41.682Z,448.9231
2023-05-19T04:05:42.709Z,447.1538
2023-05-19T04:06:43.695Z,450.0000
2023-05-19T04:07:44.715Z,450.1538
2023-05-19T04:08:45.800Z,449.3846
2023-05-19T04:09:46.860Z,444.3846
2023-05-19T04:10:47.907Z,444.0769
2023-05-19T04:11:48.931Z,445.6154
2023-05-19T04:12:49.954Z,447.4615
2023-05-19T04:13:51.030Z,448.4615
2023-05-19T04:14:52.095Z,446.2308
2023-05-19T04:15:53.230Z,444.9231
2023-05-19T04:16:54.151Z,452.1538
2023-05-19T04:17:55.225Z,455.9231
2023-05-19T04:18:56.304Z,449.7692
2023-05-19T04:19:57.324Z,448.5385
2023-05-19T04:20:58.334Z,450.5385
2023-05-19T04:21:59.349Z,453.2308
2023-05-19T04:23:00.403Z,452.9231
2023-05-19T04:24:01.455Z,453.8462
2023-05-19T04:25:02.569Z,453.0769
2023-05-19T04:26:03.596Z,453.8462
2023-05-19T04:27:04.657Z,458.9231
2023-05-19T04:28:05.618Z,457.2308
2023-05-19T04:29:06.735Z,457.3846
2023-05-19T04:30:07.818Z,459.0000
2023-05-19T04:31:08.860Z,458.6923
2023-05-19T04:32:09.871Z,459.1538
2023-05-19T04:33:10.870Z,456.7692
2023-05-19T04:34:11.928Z,460.0769
2023-05-19T04:35:13.086Z,462.4615
2023-05-19T04:36:14.058Z,461.4615
2023-05-19T04:37:15.076Z,458.9231
2023-05-19T04:38:16.054Z,458.0000
2023-05-19T04:39:17.126Z,457.7692
2023-05-19T04:40:18.233Z,457.6154
2023-05-19T04:41:19.283Z,459.6154
2023-05-19T04:42:20.295Z,458.6923
2023-05-19T04:43:21.297Z,459.0769
2023-05-19T04:44:22.336Z,457.1538
2023-05-19T04:45:23.421Z,452.6154
2023-05-19T04:46:24.585Z,453.0000
2023-05-19T04:47:25.516Z,454.7692
2023-05-19T04:48:26.591Z,456.7692
2023-05-19T04:49:27.594Z,460.3077
2023-05-19T04:50:28.700Z,461.8462
2023-05-19T04:51:30.665Z,459.4615
2023-05-19T04:52:30.676Z,457.3846
2023-05-19T04:53:31.737Z,451.5385
2023-05-19T04:54:32.871Z,453.8462
2023-05-19T04:55:33.879Z,454.0000
2023-05-19T04:56:34.984Z,453.9231
2023-05-19T04:57:35.913Z,454.5385
2023-05-19T04:58:36.954Z,453.3077
2023-05-19T04:59:37.985Z,453.0769
2023-05-19T05:00:39.090Z,451.2308
2023-05-19T05:01:40.207Z,446.2308
2023-05-19T05:02:41.186Z,448.9231
2023-05-19T05:03:42.245Z,453.4615
2023-05-19T05:04:43.230Z,447.6923
2023-05-19T05:05:44.323Z,451.6923
2023-05-19T05:06:45.352Z,448.0769
2023-05-19T05:07:46.327Z,442.3846
2023-05-19T05:08:47.403Z,457.2308
2023-05-19T05:09:48.476Z,459.6923
2023-05-19T05:10:49.547Z,459.1538
2023-05-19T05:11:50.572Z,454.6923
2023-05-19T05:12:51.676Z,444.0000
2023-05-19T05:13:52.632Z,448.2308
2023-05-19T05:14:53.728Z,451.8462
2023-05-19T05:15:54.783Z,453.2308
2023-05-19T05:16:55.811Z,456.3077
2023-05-19T05:17:56.939Z,454.4615
2023-05-19T05:18:57.904Z,456.0000
2023-05-19T05:19:58.906Z,456.1538
2023-05-19T05:20:59.947Z,454.6154
2023-05-19T05:22:01.052Z,452.5385
2023-05-19T05:23:01.990Z,451.4615
2023-05-19T05:24:03.006Z,455.6923
2023-05-19T05:25:04.109Z,458.8462
2023-05-19T05:26:05.157Z,458.6923
2023-05-19T05:27:06.270Z,452.6154
2023-05-19T05:28:07.330Z,453.6923
2023-05-19T05:29:08.333Z,455.6154
2023-05-19T05:30:09.329Z,454.8462
2023-05-19T05:31:10.461Z,452.1538
2023-05-19T05:32:11.493Z,449.6154
2023-05-19T05:33:12.748Z,450.3846
2023-05-19T05:34:13.530Z,449.0769
2023-05-19T05:35:14.563Z,451.6154
2023-05-19T05:36:15.665Z,453.6923
2023-05-19T05:37:16.697Z,455.6923
2023-05-19T05:38:17.736Z,454.3846
2023-05-19T05:39:18.750Z,443.0000
2023-05-19T05:40:19.774Z,435.4615
2023-05-19T05:41:20.823Z,432.1538
2023-05-19T05:42:21.950Z,434.3846
2023-05-19T05:43:22.910Z,445.0769
2023-05-19T05:44:23.939Z,447.9231
2023-05-19T05:45:24.997Z,448.4615
2023-05-19T05:46:26.195Z,446.1538
2023-05-19T05:47:27.153Z,445.1538
2023-05-19T05:48:28.108Z,448.5385
2023-05-19T05:49:29.145Z,449.4615
2023-05-19T05:50:30.187Z,447.3846
2023-05-19T05:51:31.249Z,449.6154
2023-05-19T05:52:32.294Z,449.5385
2023-05-19T05:53:33.295Z,450.5385
2023-05-19T05:54:34.337Z,447.9231
2023-05-19T05:55:35.546Z,447.3077
2023-05-19T05:56:36.513Z,447.7692
2023-05-19T05:57:37.565Z,451.4615
2023-05-19T05:58:38.517Z,454.1538
2023-05-19T05:59:39.554Z,457.0769
2023-05-19T06:00:40.593Z,455.4615
2023-05-19T06:01:41.721Z,456.6154
2023-05-19T06:02:42.820Z,456.0769
2023-05-19T06:03:43.835Z,455.0769
2023-05-19T06:04:44.751Z,454.3077
2023-05-19T06:05:45.829Z,456.3846
2023-05-19T06:06:46.862Z,450.9231
2023-05-19T06:07:47.940Z,449.0000
2023-05-19T06:08:48.906Z,448.3846
2023-05-19T06:09:49.953Z,442.3077
2023-05-19T06:10:51.018Z,441.7692
2023-05-19T06:11:52.075Z,451.0769
2023-05-19T06:12:53.130Z,451.4615
2023-05-19T06:13:54.113Z,449.3077
2023-05-19T06:14:55.138Z,445.9231
2023-05-19T06:15:56.208Z,445.6154
2023-05-19T06:16:57.389Z,446.7692
2023-05-19T06:17:58.367Z,443.7692
2023-05-19T06:18:59.452Z,444.0769
2023-05-19T06:20:00.340Z,446.6923
2023-05-19T06:21:01.503Z,451.8462
2023-05-19T06:22:02.524Z,449.0000
2023-05-19T06:23:03.544Z,453.4615
2023-05-19T06:24:04.538Z,449.2308
2023-05-19T06:25:05.632Z,450.0000
2023-05-19T06:26:06.611Z,450.6923
2023-05-19T06:27:07.825Z,450.1538
2023-05-19T06:28:08.796Z,451.1538
2023-05-19T06:29:09.730Z,452.0769
2023-05-19T06:30:10.788Z,453.6923
2023-05-19T06:31:11.841Z,453.1538
2023-05-19T06:32:12.880Z,435.3846
2023-05-19T06:33:14.002Z,435.5385
2023-05-19T06:34:14.943Z,433.3846
2023-05-19T06:35:16.065Z,417.9231
2023-05-19T06:36:17.119Z,441.6923
2023-05-19T06:37:18.216Z,447.3846
2023-05-19T06:38:19.162Z,447.4615
2023-05-19T06:39:20.192Z,442.0000
2023-05-19T06:40:21.200Z,442.0000
2023-05-19T06:41:22.391Z,444.5385
2023-05-19T06:42:23.327Z,446.9231
2023-05-19T06:43:24.396Z,448.0769
2023-05-19T06:44:25.356Z,449.2308
2023-05-19T06:45:26.439Z,449.5385
2023-05-19T06:46:27.460Z,453.4615
2023-05-19T06:47:28.566Z,450.9231
2023-05-19T06:48:29.631Z,448.4615
2023-05-19T06:49:30.612Z,449.9231
2023-05-19T06:50:31.843Z,452.3846
2023-05-19T06:51:32.670Z,450.8462
2023-05-19T06:52:33.860Z,449.2308
2023-05-19T06:53:34.816Z,445.8462
2023-05-19T06:54:35.775Z,436.0000
2023-05-19T06:55:41.400Z,448.8462
2023-05-19T06:56:37.908Z,451.5385
2023-05-19T06:57:38.946Z,450.3846
2023-05-19T06:58:39.921Z,448.5385
2023-05-19T06:59:40.901Z,453.0000
2023-05-19T07:00:41.965Z,455.8462
2023-05-19T07:01:43.077Z,452.2308
2023-05-19T07:02:44.152Z,446.6923
2023-05-19T07:03:45.156Z,449.0000
2023-05-19T07:04:46.105Z,450.9231
2023-05-19T07:05:47.133Z,450.6923
2023-05-19T07:06:48.185Z,451.8462
2023-05-19T07:07:49.253Z,452.7692
2023-05-19T07:08:51.816Z,448.9231
2023-05-19T07:09:51.312Z,448.9231
2023-05-19T07:10:52.380Z,446.5385
2023-05-19T07:11:53.373Z,447.3077
2023-05-19T07:12:54.492Z,446.4615
2023-05-19T07:13:55.616Z,440.4615
2023-05-19T07:14:56.590Z,434.6154
2023-05-19T07:15:57.601Z,441.3077
2023-05-19T07:16:58.607Z,444.6923
2023-05-19T07:17:59.724Z,447.3077
2023-05-19T07:19:00.800Z,448.3846
2023-05-19T07:20:01.731Z,449.2308
2023-05-19T07:21:02.788Z,449.6923
2023-05-19T07:22:03.822Z,447.4615
2023-05-19T07:23:04.901Z,445.7692
2023-05-19T07:24:05.932Z,442.7692
2023-05-19T07:25:06.993Z,442.7692
2023-05-19T07:26:07.965Z,442.6923
2023-05-19T07:27:09.071Z,444.3846
2023-05-19T07:28:10.135Z,440.8462
2023-05-19T07:29:11.204Z,443.5385
2023-05-19T07:30:12.223Z,448.2308
2023-05-19T07:31:13.208Z,446.3846
2023-05-19T07:32:14.344Z,441.3846
2023-05-19T07:33:15.395Z,440.2308
2023-05-19T07:34:16.349Z,441.6923
2023-05-19T07:35:17.415Z,440.3846
2023-05-19T07:36:18.405Z,440.8462
2023-05-19T07:37:19.499Z,442.3077
2023-05-19T07:38:20.505Z,443.0769
2023-05-19T07:39:21.609Z,437.4615
2023-05-19T07:40:22.594Z,437.6154
2023-05-19T07:41:23.640Z,442.8462
2023-05-19T07:42:24.699Z,444.6923
2023-05-19T07:43:25.696Z,445.0000
2023-05-19T07:44:26.750Z,447.5385
2023-05-19T07:45:27.848Z,449.0769
2023-05-19T07:46:28.993Z,449.0000
2023-05-19T07:47:30.023Z,448.8462
2023-05-19T07:48:30.890Z,445.7692
2023-05-19T07:49:32.011Z,446.6923
2023-05-19T07:50:33.140Z,446.0000
2023-05-19T07:51:34.019Z,448.3846
2023-05-19T07:52:35.083Z,444.3846
2023-05-19T07:53:36.135Z,445.0000
2023-05-19T07:54:37.164Z,448.5385
2023-05-19T07:55:38.208Z,446.9231
2023-05-19T07:56:39.214Z,444.3077
2023-05-19T07:57:40.540Z,442.2308
2023-05-19T07:58:41.332Z,440.5385
2023-05-19T07:59:42.386Z,441.4615
2023-05-19T08:00:43.435Z,442.6154
2023-05-19T08:01:44.418Z,444.6154
2023-05-19T08:02:45.493Z,442.9231
2023-05-19T08:03:46.545Z,441.7692
2023-05-19T08:04:47.680Z,445.0769
2023-05-19T08:05:48.657Z,439.6154
2023-05-19T08:06:49.591Z,436.4615
2023-05-19T08:07:50.691Z,431.4615
2023-05-19T08:08:51.747Z,433.1538
2023-05-19T08:09:52.817Z,436.7692
2023-05-19T08:10:53.847Z,437.5385
2023-05-19T08:11:54.873Z,441.0769
2023-05-19T08:12:56.138Z,443.0000
2023-05-19T08:13:56.926Z,444.3077
2023-05-19T08:14:59.734Z,446.1538
2023-05-19T08:15:59.090Z,438.0000
2023-05-19T08:17:00.039Z,438.0769
2023-05-19T08:18:01.151Z,440.6923
2023-05-19T08:19:02.173Z,443.0000
2023-05-19T08:20:03.219Z,444.0769
2023-05-19T08:21:04.247Z,441.8462
2023-05-19T08:22:05.253Z,433.0769
2023-05-19T08:23:06.271Z,443.0769
2023-05-19T08:24:07.352Z,445.0769
2023-05-19T08:25:08.438Z,451.7692
2023-05-19T08:26:09.505Z,450.6923
2023-05-19T08:27:10.482Z,446.6923
2023-05-19T08:28:11.620Z,440.8462
2023-05-19T08:29:12.522Z,438.6923
2023-05-19T08:30:13.645Z,441.2308
2023-05-19T08:31:14.704Z,442.2308
2023-05-19T08:32:15.698Z,445.0000
2023-05-19T08:33:16.701Z,445.5385
2023-05-19T08:34:17.746Z,444.8462
2023-05-19T08:35:18.865Z,447.5385
2023-05-19T08:36:20.055Z,449.1538
2023-05-19T08:37:20.907Z,445.4615
2023-05-19T08:38:21.954Z,447.9231
2023-05-19T08:39:22.945Z,455.5385
2023-05-19T08:40:24.067Z,453.7692
2023-05-19T08:41:25.128Z,453.3077
2023-05-19T08:42:26.152Z,451.3077
2023-05-19T08:43:27.148Z,450.2308
2023-05-19T08:44:28.161Z,454.0769
2023-05-19T08:45:29.465Z,450.6923
2023-05-19T08:46:30.309Z,446.0000
2023-05-19T08:47:31.337Z,438.3846
2023-05-19T08:48:32.323Z,434.3077
2023-05-19T08:49:33.346Z,440.3846
2023-05-19T08:50:34.741Z,440.2308
2023-05-19T08:51:35.497Z,437.9231
2023-05-19T08:52:36.557Z,433.2308
2023-05-19T08:53:37.519Z,437.3077
2023-05-19T08:54:38.540Z,438.3846
2023-05-19T08:55:39.625Z,442.7692
2023-05-19T08:56:40.660Z,440.3846
2023-05-19T08:57:41.699Z,442.3846
2023-05-19T08:58:42.786Z,441.3846
2023-05-19T08:59:43.781Z,442.2308
2023-05-19T09:00:44.848Z,441.6923
2023-05-19T09:01:46.027Z,432.0000
2023-05-19T09:02:55.467Z,436.6154
2023-05-19T09:03:47.974Z,444.7692
2023-05-19T09:04:49.015Z,452.6923
2023-05-19T09:05:50.073Z,450.0769
2023-05-19T09:06:51.054Z,448.3846
2023-05-19T09:07:52.165Z,447.3077
2023-05-19T09:08:53.381Z,443.9231
2023-05-19T09:09:54.137Z,445.7692
2023-05-19T09:10:55.264Z,442.1538
2023-05-19T09:11:56.306Z,444.3077
2023-05-19T09:12:57.302Z,445.0769
2023-05-19T09:13:58.316Z,443.9231
2023-05-19T09:14:59.374Z,441.0000
2023-05-19T09:16:00.390Z,443.0769
2023-05-19T09:17:01.575Z,443.5385
2023-05-19T09:18:02.558Z,442.0769
2023-05-19T09:19:03.620Z,443.0000
2023-05-19T09:20:04.574Z,446.6154
2023-05-19T09:21:05.603Z,440.4615
2023-05-19T09:22:06.718Z,435.8462
2023-05-19T09:23:07.703Z,435.0000
2023-05-19T09:24:08.726Z,440.0769
2023-05-19T09:25:09.740Z,443.0000
2023-05-19T09:26:10.752Z,443.0000
2023-05-19T09:27:11.859Z,442.2308
2023-05-19T09:28:12.943Z,446.4615
2023-05-19T09:29:13.992Z,439.6923
2023-05-19T09:30:15.007Z,445.3846
2023-05-19T09:31:16.042Z,445.7692
2023-05-19T09:32:17.096Z,448.2308
2023-05-19T09:33:18.172Z,447.7692
2023-05-19T09:34:19.298Z,450.3077
2023-05-19T09:35:20.229Z,446.3846
2023-05-19T09:36:21.182Z,446.4615
2023-05-19T09:37:22.323Z,446.8462
2023-05-19T09:38:23.300Z,446.1538
2023-05-19T09:39:24.401Z,444.1538
2023-05-19T09:40:25.479Z,443.7692
2023-05-19T09:41:26.422Z,429.3846
2023-05-19T09:42:27.458Z,433.0000
2023-05-19T09:43:28.639Z,442.0000
2023-05-19T09:44:29.718Z,442.3846
2023-05-19T09:45:30.665Z,445.4615
2023-05-19T09:46:31.656Z,446.2308
2023-05-19T09:47:32.666Z,449.0000
2023-05-19T09:48:33.706Z,449.3077
2023-05-19T09:49:34.749Z,446.0769
2023-05-19T09:50:35.836Z,441.5385
2023-05-19T09:51:36.795Z,439.3846
2023-05-19T09:52:37.833Z,440.3077
2023-05-19T09:53:38.978Z,440.6923
2023-05-19T09:54:39.939Z,440.3846
2023-05-19T09:55:40.944Z,439.1538
2023-05-19T09:56:42.012Z,438.0769
2023-05-19T09:57:43.022Z,439.0769
2023-05-19T09:58:44.088Z,441.8462
2023-05-19T09:59:45.160Z,440.0769
2023-05-19T10:00:46.193Z,439.8462
2023-05-19T10:01:47.221Z,442.5385
2023-05-19T10:02:48.287Z,452.5385
2023-05-19T10:03:49.263Z,451.0000
2023-05-19T10:04:50.365Z,447.9231
2023-05-19T10:05:51.397Z,444.8462
2023-05-19T10:06:52.420Z,446.4615
2023-05-19T10:07:53.418Z,446.4615
2023-05-19T10:08:54.462Z,446.5385
2023-05-19T10:09:56.670Z,446.0769
2023-05-19T10:10:56.665Z,443.9231
2023-05-19T10:11:57.614Z,443.4615
2023-05-19T10:12:58.647Z,444.6154
2023-05-19T10:13:59.701Z,447.0769
2023-05-19T10:15:00.734Z,447.6154
2023-05-19T10:16:02.139Z,451.7692
2023-05-19T10:17:03.021Z,446.6154
2023-05-19T10:18:03.876Z,443.2308
2023-05-19T10:19:04.966Z,444.2308
2023-05-19T10:20:05.931Z,443.6923
2023-05-19T10:21:07.012Z,442.3077
2023-05-19T10:22:08.032Z,440.3846
2023-05-19T10:23:09.195Z,439.6923
2023-05-19T10:24:11.472Z,439.3077
2023-05-19T10:25:11.152Z,443.6154
2023-05-19T10:26:12.207Z,444.2308
2023-05-19T10:27:13.272Z,444.4615
2023-05-19T10:28:14.256Z,443.3846
2023-05-19T10:29:15.301Z,440.5385
2023-05-19T10:30:16.735Z,441.3077
2023-05-19T10:31:17.418Z,440.3077
2023-05-19T10:32:18.494Z,442.4615
2023-05-19T10:33:19.584Z,443.2308
2023-05-19T10:34:20.496Z,444.0000
2023-05-19T10:35:21.572Z,444.4615
2023-05-19T10:36:22.615Z,447.0000
2023-05-19T10:37:23.659Z,446.2308
2023-05-19T10:38:24.666Z,441.6923
2023-05-19T10:39:25.741Z,430.8462
2023-05-19T10:40:26.783Z,431.5385
2023-05-19T10:41:27.830Z,427.4615
2023-05-19T10:42:28.880Z,427.4615
2023-05-19T10:43:29.875Z,432.3846
2023-05-19T10:44:30.944Z,436.6154
2023-05-19T10:45:32.189Z,437.5385
2023-05-19T10:46:33.062Z,437.3077
2023-05-19T10:47:34.135Z,436.8462
2023-05-19T10:48:35.167Z,437.6154
2023-05-19T10:49:36.113Z,438.0769
2023-05-19T10:50:37.190Z,434.7692
2023-05-19T10:51:38.248Z,431.4615
2023-05-19T10:52:39.295Z,435.3846
2023-05-19T10:53:40.351Z,439.7692
2023-05-19T10:54:41.372Z,439.4615
2023-05-19T10:55:42.380Z,437.8462
2023-05-19T10:56:43.431Z,438.6923
2023-05-19T10:57:44.463Z,439.3846
2023-05-19T10:58:45.570Z,441.0000
2023-05-19T10:59:46.545Z,444.9231
2023-05-19T11:00:47.608Z,441.3846
2023-05-19T11:01:48.633Z,437.6154
2023-05-19T11:02:49.848Z,432.0000
2023-05-19T11:03:50.839Z,433.5385
2023-05-19T11:04:52.149Z,433.6154
2023-05-19T11:05:52.799Z,434.0769
2023-05-19T11:06:53.910Z,434.1538
2023-05-19T11:07:54.903Z,438.8462
2023-05-19T11:08:55.988Z,421.1538
2023-05-19T11:09:56.984Z,428.3846
2023-05-19T11:10:58.029Z,430.3077
2023-05-19T11:11:59.042Z,436.0000
2023-05-19T11:13:00.104Z,435.0769
2023-05-19T11:14:01.206Z,424.4615
2023-05-19T11:15:02.204Z,432.6923
2023-05-19T11:16:03.193Z,439.6923
2023-05-19T11:17:04.323Z,441.1538
2023-05-19T11:18:05.383Z,441.4615
2023-05-19T11:19:06.418Z,442.2308
2023-05-19T11:20:07.428Z,443.7692
2023-05-19T11:21:08.484Z,445.0000
2023-05-19T11:22:09.479Z,447.0769
2023-05-19T11:23:10.684Z,439.6923
2023-05-19T11:24:11.559Z,441.5385
2023-05-19T11:25:12.622Z,440.8462
2023-05-19T11:26:13.633Z,439.8462
2023-05-19T11:27:14.673Z,442.1538
2023-05-19T11:28:15.697Z,440.5385
2023-05-19T11:29:16.793Z,440.1538
2023-05-19T11:30:17.814Z,450.0000
2023-05-19T11:31:18.850Z,453.5385
2023-05-19T11:32:19.932Z,447.0769
2023-05-19T11:33:21.022Z,442.9231
2023-05-19T11:34:21.993Z,442.4615
2023-05-19T11:35:23.074Z,440.0769
2023-05-19T11:36:24.030Z,439.6923
2023-05-19T11:37:25.101Z,439.2308
2023-05-19T11:38:26.112Z,438.9231
2023-05-19T11:39:27.209Z,438.7692
2023-05-19T11:40:28.252Z,437.9231
2023-05-19T11:41:29.330Z,436.6923
2023-05-19T11:42:30.303Z,435.6923
2023-05-19T11:43:31.355Z,437.6923
2023-05-19T11:44:32.401Z,437.6923
2023-05-19T11:45:33.594Z,438.2308
2023-05-19T11:46:34.571Z,436.0769
2023-05-19T11:47:46.490Z,434.4615
2023-05-19T11:48:36.550Z,434.8462
2023-05-19T11:49:37.581Z,434.3077
2023-05-19T11:50:38.692Z,434.8462
2023-05-19T11:51:39.682Z,436.0000
2023-05-19T11:52:40.704Z,434.3846
2023-05-19T11:53:41.732Z,434.7692
2023-05-19T11:54:42.773Z,434.1538
2023-05-19T11:55:44.090Z,434.2308
2023-05-19T11:56:44.903Z,433.0000